sensor_id;sensor_type;location;lat;lon;timestamp;pressure;altitude;pressure_sealevel;temperature;humidity
53940;BME280;39850;43.324;21.916;2023-04-24T00:18:47;987.0;;;13.5;53.0
53940;BME280;39850;43.324;21.916;2023-04-24T00:23:24;987.0;;;13.5;53.0
53940;BME280;39850;43.324;21.916;2023-04-24T00:28:01;987.0;;;13.5;53.0
53940;BME280;39850;43.324;21.916;2023-04-24T00:32:38;987.0;;;13.5;53.0
53940;BME280;39850;43.324;21.916;2023-04-24T00:37:16;987.0;;;13.5;54.0
53940;BME280;39850;43.324;21.916;2023-04-24T00:41:54;987.0;;;13.5;54.0
53940;BME280;39850;43.324;21.916;2023-04-24T00:46:33;987.0;;;13.5;54.0
53940;BME280;39850;43.324;21.916;2023-04-24T00:51:11;987.0;;;13.5;55.0
53940;BME280;39850;43.324;21.916;2023-04-24T00:55:50;987.0;;;13.5;55.0
53940;BME280;39850;43.324;21.916;2023-04-24T01:00:29;987.0;;;13.5;55.0
53940;BME280;39850;43.324;21.916;2023-04-24T01:05:09;987.0;;;13.5;55.0
53940;BME280;39850;43.324;21.916;2023-04-24T01:37:36;987.0;;;13.7;57.0
53940;BME280;39850;43.324;21.916;2023-04-24T01:42:14;987.0;;;13.7;57.0
53940;BME280;39850;43.324;21.916;2023-04-24T01:46:52;987.0;;;13.7;57.0
53940;BME280;39850;43.324;21.916;2023-04-24T01:51:30;987.0;;;13.2;58.0
53940;BME280;39850;43.324;21.916;2023-04-24T01:56:07;987.0;;;13.2;58.0
53940;BME280;39850;43.324;21.916;2023-04-24T02:00:44;987.0;;;12.8;58.0
53940;BME280;39850;43.324;21.916;2023-04-24T02:05:21;987.0;;;12.8;58.0
53940;BME280;39850;43.324;21.916;2023-04-24T02:09:58;987.0;;;12.7;58.0
53940;BME280;39850;43.324;21.916;2023-04-24T02:14:35;987.0;;;12.7;58.0
53940;BME280;39850;43.324;21.916;2023-04-24T02:19:11;987.0;;;12.8;58.0
53940;BME280;39850;43.324;21.916;2023-04-24T02:23:48;987.0;;;12.8;58.0
53940;BME280;39850;43.324;21.916;2023-04-24T03:00:40;987.0;;;13.7;58.0
53940;BME280;39850;43.324;21.916;2023-04-24T03:05:17;987.0;;;13.7;58.0
53940;BME280;39850;43.324;21.916;2023-04-24T03:09:54;987.0;;;13.7;57.0
53940;BME280;39850;43.324;21.916;2023-04-24T03:14:31;987.0;;;13.7;57.0
53940;BME280;39850;43.324;21.916;2023-04-24T03:19:08;987.0;;;13.7;57.0
53940;BME280;39850;43.324;21.916;2023-04-24T03:23:46;987.0;;;13.7;57.0
53940;BME280;39850;43.324;21.916;2023-04-24T03:28:23;987.0;;;13.7;57.0
53940;BME280;39850;43.324;21.916;2023-04-24T03:33:01;987.0;;;13.7;57.0
53940;BME280;39850;43.324;21.916;2023-04-24T03:37:38;987.0;;;13.7;57.0
53940;BME280;39850;43.324;21.916;2023-04-24T03:42:15;987.0;;;13.7;57.0
53940;BME280;39850;43.324;21.916;2023-04-24T03:46:52;987.0;;;13.7;57.0
53940;BME280;39850;43.324;21.916;2023-04-24T04:19:08;987.0;;;12.6;62.0
53940;BME280;39850;43.324;21.916;2023-04-24T04:23:45;987.0;;;12.6;62.0
53940;BME280;39850;43.324;21.916;2023-04-24T04:28:22;987.0;;;12.6;62.0
53940;BME280;39850;43.324;21.916;2023-04-24T04:32:59;987.0;;;12.6;62.0
53940;BME280;39850;43.324;21.916;2023-04-24T04:37:36;987.0;;;12.6;62.0
53940;BME280;39850;43.324;21.916;2023-04-24T04:42:12;987.0;;;12.6;62.0
53940;BME280;39850;43.324;21.916;2023-04-24T04:46:50;987.0;;;12.6;62.0
53940;BME280;39850;43.324;21.916;2023-04-24T04:51:27;987.0;;;12.6;63.0
53940;BME280;39850;43.324;21.916;2023-04-24T04:56:04;987.0;;;12.6;63.0
53940;BME280;39850;43.324;21.916;2023-04-24T05:42:09;987.0;;;14.6;59.0
53940;BME280;39850;43.324;21.916;2023-04-24T05:46:46;987.0;;;14.6;59.0
53940;BME280;39850;43.324;21.916;2023-04-24T05:51:24;987.0;;;14.2;60.0
53940;BME280;39850;43.324;21.916;2023-04-24T05:56:01;987.0;;;14.2;60.0
53940;BME280;39850;43.324;21.916;2023-04-24T06:00:39;987.0;;;14.2;60.0
53940;BME280;39850;43.324;21.916;2023-04-24T06:05:16;987.0;;;14.2;60.0
53940;BME280;39850;43.324;21.916;2023-04-24T06:09:53;987.0;;;13.7;60.0
53940;BME280;39850;43.324;21.916;2023-04-24T06:14:30;987.0;;;13.7;60.0
53940;BME280;39850;43.324;21.916;2023-04-24T07:00:41;987.0;;;19.2;46.0
53940;BME280;39850;43.324;21.916;2023-04-24T07:05:17;987.0;;;19.2;46.0
53940;BME280;39850;43.324;21.916;2023-04-24T07:09:54;987.0;;;19.8;44.0
53940;BME280;39850;43.324;21.916;2023-04-24T07:14:30;987.0;;;19.8;44.0
53940;BME280;39850;43.324;21.916;2023-04-24T07:19:07;987.0;;;19.8;44.0
53940;BME280;39850;43.324;21.916;2023-04-24T07:23:44;987.0;;;19.8;44.0
53940;BME280;39850;43.324;21.916;2023-04-24T07:28:20;987.0;;;20.5;42.0
53940;BME280;39850;43.324;21.916;2023-04-24T07:32:57;987.0;;;20.5;42.0
53940;BME280;39850;43.324;21.916;2023-04-24T07:37:33;987.0;;;20.5;42.0
53940;BME280;39850;43.324;21.916;2023-04-24T08:19:04;987.0;;;22.8;34.0
53940;BME280;39850;43.324;21.916;2023-04-24T08:23:42;987.0;;;22.8;34.0
53940;BME280;39850;43.324;21.916;2023-04-24T08:28:19;987.0;;;22.8;34.0
53940;BME280;39850;43.324;21.916;2023-04-24T08:32:56;987.0;;;22.8;34.0
53940;BME280;39850;43.324;21.916;2023-04-24T08:37:33;987.0;;;22.8;34.0
53940;BME280;39850;43.324;21.916;2023-04-24T08:42:18;986.0;;;22.8;33.0
53940;BME280;39850;43.324;21.916;2023-04-24T08:46:56;986.0;;;22.8;33.0
53940;BME280;39850;43.324;21.916;2023-04-24T08:51:37;986.0;;;22.7;32.0
53940;BME280;39850;43.324;21.916;2023-04-24T08:56:16;986.0;;;22.7;32.0
53940;BME280;39850;43.324;21.916;2023-04-24T09:00:58;986.0;;;22.7;32.0
53940;BME280;39850;43.324;21.916;2023-04-24T09:05:35;986.0;;;22.7;32.0
53940;BME280;39850;43.324;21.916;2023-04-24T09:42:56;986.0;;;23.7;31.0
53940;BME280;39850;43.324;21.916;2023-04-24T09:47:39;986.0;;;23.7;31.0
53940;BME280;39850;43.324;21.916;2023-04-24T09:52:16;986.0;;;23.7;31.0
53940;BME280;39850;43.324;21.916;2023-04-24T09:56:55;986.0;;;23.7;31.0
53940;BME280;39850;43.324;21.916;2023-04-24T10:01:34;986.0;;;23.7;32.0
53940;BME280;39850;43.324;21.916;2023-04-24T10:06:14;986.0;;;23.7;32.0
53940;BME280;39850;43.324;21.916;2023-04-24T10:10:52;986.0;;;23.7;32.0
53940;BME280;39850;43.324;21.916;2023-04-24T10:15:30;986.0;;;23.7;32.0
53940;BME280;39850;43.324;21.916;2023-04-24T10:20:11;986.0;;;23.7;32.0
53940;BME280;39850;43.324;21.916;2023-04-24T10:24:52;986.0;;;23.7;32.0
53940;BME280;39850;43.324;21.916;2023-04-24T11:02:09;985.0;;;22.8;32.0
53940;BME280;39850;43.324;21.916;2023-04-24T11:06:46;985.0;;;22.8;32.0
53940;BME280;39850;43.324;21.916;2023-04-24T11:11:32;985.0;;;22.7;32.0
53940;BME280;39850;43.324;21.916;2023-04-24T11:16:33;985.0;;;22.7;32.0
53940;BME280;39850;43.324;21.916;2023-04-24T11:21:16;985.0;;;22.7;32.0
53940;BME280;39850;43.324;21.916;2023-04-24T11:26:21;985.0;;;22.7;32.0
53940;BME280;39850;43.324;21.916;2023-04-24T11:31:34;985.0;;;22.6;32.0
53940;BME280;39850;43.324;21.916;2023-04-24T11:36:13;985.0;;;22.6;32.0
53940;BME280;39850;43.324;21.916;2023-04-24T11:40:54;985.0;;;22.7;32.0
53940;BME280;39850;43.324;21.916;2023-04-24T11:45:32;985.0;;;22.7;32.0
53940;BME280;39850;43.324;21.916;2023-04-24T12:22:58;984.0;;;21.8;37.0
53940;BME280;39850;43.324;21.916;2023-04-24T12:27:35;984.0;;;21.8;37.0
53940;BME280;39850;43.324;21.916;2023-04-24T12:32:17;984.0;;;21.8;39.0
53940;BME280;39850;43.324;21.916;2023-04-24T12:36:53;984.0;;;21.8;39.0
53940;BME280;39850;43.324;21.916;2023-04-24T12:41:31;984.0;;;21.8;40.0
53940;BME280;39850;43.324;21.916;2023-04-24T12:46:08;984.0;;;21.8;40.0
53940;BME280;39850;43.324;21.916;2023-04-24T12:50:45;984.0;;;21.8;40.0
53940;BME280;39850;43.324;21.916;2023-04-24T12:55:22;984.0;;;21.8;40.0
53940;BME280;39850;43.324;21.916;2023-04-24T12:59:59;983.0;;;21.8;40.0
53940;BME280;39850;43.324;21.916;2023-04-24T13:04:36;983.0;;;21.8;40.0
53940;BME280;39850;43.324;21.916;2023-04-24T13:09:13;983.0;;;21.8;40.0
53940;BME280;39850;43.324;21.916;2023-04-24T13:41:35;984.0;;;18.0;53.0
53940;BME280;39850;43.324;21.916;2023-04-24T13:46:12;984.0;;;18.0;53.0
53940;BME280;39850;43.324;21.916;2023-04-24T13:50:49;984.0;;;18.2;52.0
53940;BME280;39850;43.324;21.916;2023-04-24T13:55:26;984.0;;;18.2;52.0
53940;BME280;39850;43.324;21.916;2023-04-24T14:00:11;984.0;;;18.3;51.0
53940;BME280;39850;43.324;21.916;2023-04-24T14:04:50;984.0;;;18.3;51.0
53940;BME280;39850;43.324;21.916;2023-04-24T14:09:27;984.0;;;18.3;51.0
53940;BME280;39850;43.324;21.916;2023-04-24T14:14:06;984.0;;;18.7;50.0
53940;BME280;39850;43.324;21.916;2023-04-24T14:18:43;984.0;;;18.7;50.0
53940;BME280;39850;43.324;21.916;2023-04-24T14:23:20;984.0;;;19.1;50.0
53940;BME280;39850;43.324;21.916;2023-04-24T14:27:58;984.0;;;19.1;50.0
53940;BME280;39850;43.324;21.916;2023-04-24T15:00:19;984.0;;;19.1;50.0
53940;BME280;39850;43.324;21.916;2023-04-24T15:04:55;984.0;;;19.1;50.0
53940;BME280;39850;43.324;21.916;2023-04-24T15:09:31;984.0;;;19.1;50.0
53940;BME280;39850;43.324;21.916;2023-04-24T15:14:08;984.0;;;19.1;50.0
53940;BME280;39850;43.324;21.916;2023-04-24T15:18:44;984.0;;;19.1;50.0
53940;BME280;39850;43.324;21.916;2023-04-24T15:23:21;984.0;;;19.1;50.0
53940;BME280;39850;43.324;21.916;2023-04-24T15:27:58;984.0;;;19.1;50.0
53940;BME280;39850;43.324;21.916;2023-04-24T15:32:35;984.0;;;18.9;52.0
53940;BME280;39850;43.324;21.916;2023-04-24T15:37:12;984.0;;;18.9;52.0
53940;BME280;39850;43.324;21.916;2023-04-24T15:41:49;984.0;;;18.7;54.0
53940;BME280;39850;43.324;21.916;2023-04-24T15:46:26;984.0;;;18.7;54.0
53940;BME280;39850;43.324;21.916;2023-04-24T16:23:21;984.0;;;15.1;73.0
53940;BME280;39850;43.324;21.916;2023-04-24T16:27:59;984.0;;;15.1;73.0
53940;BME280;39850;43.324;21.916;2023-04-24T16:32:35;984.0;;;15.0;73.0
53940;BME280;39850;43.324;21.916;2023-04-24T16:37:13;984.0;;;15.0;73.0
53940;BME280;39850;43.324;21.916;2023-04-24T16:41:50;984.0;;;15.0;73.0
53940;BME280;39850;43.324;21.916;2023-04-24T16:46:27;984.0;;;15.0;73.0
53940;BME280;39850;43.324;21.916;2023-04-24T16:51:05;984.0;;;14.8;74.0
53940;BME280;39850;43.324;21.916;2023-04-24T16:55:41;984.0;;;14.8;74.0
53940;BME280;39850;43.324;21.916;2023-04-24T17:41:51;983.0;;;14.6;77.0
53940;BME280;39850;43.324;21.916;2023-04-24T17:46:28;983.0;;;14.6;77.0
53940;BME280;39850;43.324;21.916;2023-04-24T17:51:04;983.0;;;14.6;77.0
53940;BME280;39850;43.324;21.916;2023-04-24T17:55:42;983.0;;;14.6;77.0
53940;BME280;39850;43.324;21.916;2023-04-24T18:00:20;983.0;;;14.6;77.0
53940;BME280;39850;43.324;21.916;2023-04-24T18:04:56;983.0;;;14.6;77.0
53940;BME280;39850;43.324;21.916;2023-04-24T18:09:32;983.0;;;14.6;77.0
53940;BME280;39850;43.324;21.916;2023-04-24T18:14:09;983.0;;;14.6;77.0
53940;BME280;39850;43.324;21.916;2023-04-24T18:18:45;983.0;;;14.6;77.0
53940;BME280;39850;43.324;21.916;2023-04-24T18:23:22;983.0;;;14.6;77.0
53940;BME280;39850;43.324;21.916;2023-04-24T18:27:58;983.0;;;14.6;77.0
53940;BME280;39850;43.324;21.916;2023-04-24T19:04:52;984.0;;;13.5;78.0
53940;BME280;39850;43.324;21.916;2023-04-24T19:09:29;984.0;;;13.5;78.0
53940;BME280;39850;43.324;21.916;2023-04-24T19:14:06;984.0;;;13.5;78.0
53940;BME280;39850;43.324;21.916;2023-04-24T19:18:43;984.0;;;13.5;78.0
53940;BME280;39850;43.324;21.916;2023-04-24T19:23:20;984.0;;;13.5;78.0
53940;BME280;39850;43.324;21.916;2023-04-24T19:27:57;984.0;;;13.5;78.0
53940;BME280;39850;43.324;21.916;2023-04-24T19:32:33;984.0;;;13.5;78.0
53940;BME280;39850;43.324;21.916;2023-04-24T19:37:11;984.0;;;13.5;78.0
53940;BME280;39850;43.324;21.916;2023-04-24T19:41:48;984.0;;;13.5;78.0
53940;BME280;39850;43.324;21.916;2023-04-24T19:46:25;984.0;;;13.5;78.0
53940;BME280;39850;43.324;21.916;2023-04-24T20:23:19;983.0;;;13.5;82.0
53940;BME280;39850;43.324;21.916;2023-04-24T20:27:56;983.0;;;13.5;82.0
53940;BME280;39850;43.324;21.916;2023-04-24T20:32:33;983.0;;;14.0;81.0
53940;BME280;39850;43.324;21.916;2023-04-24T20:37:09;983.0;;;14.0;81.0
53940;BME280;39850;43.324;21.916;2023-04-24T20:41:45;983.0;;;14.0;81.0
53940;BME280;39850;43.324;21.916;2023-04-24T20:46:22;983.0;;;14.0;81.0
53940;BME280;39850;43.324;21.916;2023-04-24T20:50:59;983.0;;;14.0;81.0
53940;BME280;39850;43.324;21.916;2023-04-24T20:55:36;983.0;;;14.4;80.0
53940;BME280;39850;43.324;21.916;2023-04-24T21:00:15;983.0;;;14.4;80.0
53940;BME280;39850;43.324;21.916;2023-04-24T21:41:49;984.0;;;14.4;77.0
53940;BME280;39850;43.324;21.916;2023-04-24T21:46:26;984.0;;;14.4;77.0
53940;BME280;39850;43.324;21.916;2023-04-24T21:51:03;984.0;;;14.4;77.0
53940;BME280;39850;43.324;21.916;2023-04-24T21:55:41;984.0;;;14.4;77.0
53940;BME280;39850;43.324;21.916;2023-04-24T22:00:19;984.0;;;14.4;77.0
53940;BME280;39850;43.324;21.916;2023-04-24T22:04:56;984.0;;;14.4;77.0
53940;BME280;39850;43.324;21.916;2023-04-24T22:09:33;984.0;;;14.4;77.0
53940;BME280;39850;43.324;21.916;2023-04-24T22:14:10;984.0;;;14.4;76.0
53940;BME280;39850;43.324;21.916;2023-04-24T22:18:49;984.0;;;14.4;76.0
53940;BME280;39850;43.324;21.916;2023-04-24T23:04:57;983.0;;;14.6;70.0
53940;BME280;39850;43.324;21.916;2023-04-24T23:09:34;983.0;;;14.6;70.0
53940;BME280;39850;43.324;21.916;2023-04-24T23:14:11;983.0;;;14.4;70.0
53940;BME280;39850;43.324;21.916;2023-04-24T23:18:47;983.0;;;14.4;70.0
53940;BME280;39850;43.324;21.916;2023-04-24T23:23:24;983.0;;;14.2;70.0
53940;BME280;39850;43.324;21.916;2023-04-24T23:28:01;983.0;;;14.2;70.0
53940;BME280;39850;43.324;21.916;2023-04-24T23:32:37;983.0;;;14.0;70.0
53940;BME280;39850;43.324;21.916;2023-04-24T23:37:14;983.0;;;14.0;70.0
53940;BME280;39850;43.324;21.916;2023-04-24T23:41:51;983.0;;;13.9;70.0
53940;BME280;39850;43.324;21.916;2023-04-24T23:46:27;983.0;;;13.9;70.0
53940;BME280;39850;43.324;21.916;2023-04-24T23:51:05;983.0;;;13.9;70.0
